Time;durP1;ratioP1;P1;durP2;ratioP2;P2;SDS_P1;SDS_P2;PMS_P1;PMS_P2;Temp;Humidity;BMP_temperature;BMP_pressure;BME280_temperature;BME280_humidity;BME280_pressure;Samples;Min_cycle;Max_cycle;Signal;HPM_P1;HPM_P2
2022/01/22 00:01:00;;;;;;;10.37;3.83;;;;;;;;;;6191651;23;20187;-73
2022/01/22 00:03:28;;;;;;;9.00;3.20;;;;;;;;;;6217499;23;20554;-73
2022/01/22 00:05:56;;;;;;;9.87;2.87;;;;;;;;;;6217617;23;20199;-73
2022/01/22 00:08:23;;;;;;;8.97;3.60;;;;;;;;;;6217520;23;20243;-73
2022/01/22 00:10:52;;;;;;;6.20;3.23;;;;;;;;;;6217661;23;20183;-73
2022/01/22 00:15:48;;;;;;;8.13;3.47;;;;;;;;;;6191350;23;20180;-73
2022/01/22 00:18:16;;;;;;;10.43;3.47;;;;;;;;;;6217321;23;20180;-73
2022/01/22 00:20:44;;;;;;;9.13;3.40;;;;;;;;;;6217569;23;20239;-73
2022/01/22 00:23:11;;;;;;;10.67;3.10;;;;;;;;;;6217373;23;20211;-73
2022/01/22 00:25:38;;;;;;;7.10;3.30;;;;;;;;;;6217341;23;20215;-73
2022/01/22 00:28:05;;;;;;;10.10;4.37;;;;;;;;;;6217118;23;20612;-73
2022/01/22 00:30:33;;;;;;;12.77;4.30;;;;;;;;;;6216891;23;20232;-73
2022/01/22 00:33:00;;;;;;;12.20;4.07;;;;;;;;;;6217545;23;20180;-73
2022/01/22 00:35:27;;;;;;;12.17;4.60;;;;;;;;;;6217509;23;20180;-73
2022/01/22 00:37:54;;;;;;;10.67;4.67;;;;;;;;;;6190909;23;20540;-73
2022/01/22 00:40:22;;;;;;;9.97;3.80;;;;;;;;;;6217284;23;20186;-73
2022/01/22 00:42:49;;;;;;;10.33;4.17;;;;;;;;;;6190848;23;20191;-73
2022/01/22 00:45:18;;;;;;;12.23;4.93;;;;;;;;;;6190850;23;20204;-73
2022/01/22 00:47:47;;;;;;;11.57;4.83;;;;;;;;;;6191059;23;20184;-73
2022/01/22 00:50:17;;;;;;;13.20;5.33;;;;;;;;;;6217277;23;20258;-73
2022/01/22 00:52:46;;;;;;;13.53;4.60;;;;;;;;;;6200850;23;20171;-73
2022/01/22 00:55:14;;;;;;;12.17;4.90;;;;;;;;;;6217261;23;20187;-73
2022/01/22 00:57:42;;;;;;;25.20;7.17;;;;;;;;;;6217156;23;20187;-73
2022/01/22 01:00:12;;;;;;;18.87;7.63;;;;;;;;;;6217145;23;20180;-73
2022/01/22 01:02:40;;;;;;;28.63;10.67;;;;;;;;;;6190900;23;20226;-73
2022/01/22 01:05:09;;;;;;;20.30;6.63;;;;;;;;;;6190663;23;20670;-73
2022/01/22 01:07:38;;;;;;;20.60;6.37;;;;;;;;;;6190701;23;20180;-73
2022/01/22 01:10:07;;;;;;;14.17;5.90;;;;;;;;;;6190577;23;20203;-73
2022/01/22 01:12:37;;;;;;;20.30;6.63;;;;;;;;;;6216905;23;20180;-73
2022/01/22 01:33:55;;;;;;;17.73;5.40;;;;;;;;;;6190427;23;20215;-73
2022/01/22 01:36:23;;;;;;;31.57;8.60;;;;;;;;;;6190082;23;20600;-73
2022/01/22 01:38:55;;;;;;;16.87;6.23;;;;;;;;;;6165793;23;20199;-73
2022/01/22 01:44:04;;;;;;;16.17;6.80;;;;;;;;;;6190625;23;20168;-73
2022/01/22 01:46:53;;;;;;;11.77;5.40;;;;;;;;;;6199968;23;20230;-73
2022/01/22 01:49:20;;;;;;;14.70;5.97;;;;;;;;;;6189951;23;20169;-73
2022/01/22 01:51:48;;;;;;;15.67;5.33;;;;;;;;;;6190156;23;20255;-73
2022/01/22 01:59:43;;;;;;;20.13;6.60;;;;;;;;;;6190166;23;20172;-72
2022/01/22 02:02:13;;;;;;;13.27;6.30;;;;;;;;;;6166422;23;20168;-72
2022/01/22 02:04:42;;;;;;;15.20;5.93;;;;;;;;;;6189911;23;20180;-72
2022/01/22 02:07:10;;;;;;;20.57;6.00;;;;;;;;;;6190239;23;20184;-73
2022/01/22 02:09:44;;;;;;;17.73;6.43;;;;;;;;;;6190198;23;20235;-72
2022/01/22 02:12:19;;;;;;;19.00;6.17;;;;;;;;;;6165436;23;20259;-72
2022/01/22 02:25:56;;;;;;;18.63;6.67;;;;;;;;;;6199598;23;20192;-72
2022/01/22 02:28:26;;;;;;;13.97;5.93;;;;;;;;;;6194863;23;20211;-72
2022/01/22 02:31:00;;;;;;;14.67;5.60;;;;;;;;;;6212680;23;20263;-72
2022/01/22 02:33:59;;;;;;;15.73;6.53;;;;;;;;;;6207597;23;20509;-72
2022/01/22 02:36:34;;;;;;;16.10;5.70;;;;;;;;;;6214576;23;20168;-72
2022/01/22 02:41:33;;;;;;;15.00;5.80;;;;;;;;;;6214671;23;20172;-73
2022/01/22 02:44:01;;;;;;;13.90;5.20;;;;;;;;;;6190400;23;20180;-73
2022/01/22 02:46:31;;;;;;;11.20;5.23;;;;;;;;;;6215974;23;20204;-73
2022/01/22 02:48:58;;;;;;;13.37;5.33;;;;;;;;;;6214856;23;20204;-73
2022/01/22 02:51:27;;;;;;;15.77;5.77;;;;;;;;;;6214607;23;20210;-73
2022/01/22 02:54:00;;;;;;;16.33;4.80;;;;;;;;;;6190798;23;20172;-73
2022/01/22 02:56:28;;;;;;;16.43;5.80;;;;;;;;;;6214710;23;20180;-73
2022/01/22 02:58:58;;;;;;;14.43;5.07;;;;;;;;;;6214286;23;20501;-73
2022/01/22 03:01:26;;;;;;;18.53;4.73;;;;;;;;;;6200389;23;20297;-73
2022/01/22 03:03:54;;;;;;;9.70;4.33;;;;;;;;;;6214707;23;20230;-73
2022/01/22 03:06:22;;;;;;;11.43;4.07;;;;;;;;;;6214404;23;20278;-73
2022/01/22 03:08:49;;;;;;;9.40;4.00;;;;;;;;;;6214508;23;20180;-72
2022/01/22 03:11:24;;;;;;;6.60;4.07;;;;;;;;;;6214284;23;20549;-73
2022/01/22 03:19:34;;;;;;;9.80;4.17;;;;;;;;;;6214778;23;20169;-73
2022/01/22 03:22:14;;;;;;;26.13;7.47;;;;;;;;;;6224355;23;20519;-73
2022/01/22 03:27:25;;;;;;;10.87;4.43;;;;;;;;;;6224276;23;20192;-73
2022/01/22 03:29:52;;;;;;;26.17;9.67;;;;;;;;;;6189591;23;20208;-73
2022/01/22 03:32:20;;;;;;;11.60;4.33;;;;;;;;;;6214519;23;20180;-73
2022/01/22 03:37:42;;;;;;;14.13;4.23;;;;;;;;;;6180462;23;20210;-73
2022/01/22 03:40:12;;;;;;;10.73;4.07;;;;;;;;;;6165311;23;20634;-73
2022/01/22 03:42:41;;;;;;;12.83;4.27;;;;;;;;;;6214136;23;20211;-73
2022/01/22 03:45:10;;;;;;;12.67;5.17;;;;;;;;;;6214464;23;20214;-73
2022/01/22 03:47:39;;;;;;;12.43;5.10;;;;;;;;;;6214462;23;20256;-73
2022/01/22 03:50:09;;;;;;;9.07;3.60;;;;;;;;;;6214330;23;20608;-73
2022/01/22 03:52:37;;;;;;;10.83;3.43;;;;;;;;;;6214489;23;20180;-72
2022/01/22 03:55:10;;;;;;;12.53;3.63;;;;;;;;;;6213895;23;20180;-72
2022/01/22 03:57:51;;;;;;;10.83;4.47;;;;;;;;;;6226116;23;20168;-72
2022/01/22 04:00:19;;;;;;;7.17;3.47;;;;;;;;;;6189591;23;20581;-72
2022/01/22 04:05:17;;;;;;;8.07;3.60;;;;;;;;;;6216171;23;20186;-72
2022/01/22 04:10:13;;;;;;;9.00;3.23;;;;;;;;;;6216216;23;20188;-72
2022/01/22 04:12:54;;;;;;;9.47;3.80;;;;;;;;;;6215954;23;20699;-72
2022/01/22 04:15:25;;;;;;;8.17;3.10;;;;;;;;;;6226335;23;20203;-73
2022/01/22 04:26:41;;;;;;;7.27;3.10;;;;;;;;;;6227322;23;20518;-73
2022/01/22 04:29:01;;;;;;;7.53;3.13;;;;;;;;;;6216932;23;20287;-73
2022/01/22 04:31:28;;;;;;;7.03;3.33;;;;;;;;;;6200905;23;20687;-73
2022/01/22 04:33:55;;;;;;;13.23;3.60;;;;;;;;;;6217625;23;20258;-73
2022/01/22 04:36:23;;;;;;;5.83;2.53;;;;;;;;;;6190886;23;20180;-73
2022/01/22 04:38:50;;;;;;;10.20;4.13;;;;;;;;;;6217465;23;20180;-73
2022/01/22 04:41:18;;;;;;;8.57;3.30;;;;;;;;;;6217355;23;20238;-73
2022/01/22 04:43:46;;;;;;;7.10;3.23;;;;;;;;;;6166488;23;20628;-73
2022/01/22 04:56:49;;;;;;;9.93;3.33;;;;;;;;;;6227272;23;20175;-73
2022/01/22 04:59:18;;;;;;;5.47;2.43;;;;;;;;;;6190376;23;20632;-73
2022/01/22 05:01:45;;;;;;;14.53;4.50;;;;;;;;;;6190650;23;20180;-73
2022/01/22 05:04:22;;;;;;;11.80;3.97;;;;;;;;;;6190934;23;20176;-73
2022/01/22 05:07:01;;;;;;;9.10;3.63;;;;;;;;;;6200387;23;20250;-73
2022/01/22 05:09:42;;;;;;;7.63;3.37;;;;;;;;;;6193965;23;20173;-73
2022/01/22 05:12:11;;;;;;;7.93;3.07;;;;;;;;;;6190558;23;20316;-73
2022/01/22 05:14:41;;;;;;;10.97;3.27;;;;;;;;;;6190097;23;20231;-73
2022/01/22 05:17:09;;;;;;;10.67;3.77;;;;;;;;;;6190245;23;20200;-73
2022/01/22 05:22:23;;;;;;;6.97;3.47;;;;;;;;;;6190459;23;20188;-73
2022/01/22 05:24:55;;;;;;;7.87;3.20;;;;;;;;;;6226942;23;20594;-73
2022/01/22 05:30:37;;;;;;;7.37;2.40;;;;;;;;;;6203788;23;20203;-73
2022/01/22 05:38:48;;;;;;;11.40;3.57;;;;;;;;;;6216852;23;20243;-73
2022/01/22 05:41:15;;;;;;;7.00;3.50;;;;;;;;;;6214882;23;20666;-73
2022/01/22 05:43:43;;;;;;;12.10;3.23;;;;;;;;;;6216274;23;20184;-73
2022/01/22 05:46:11;;;;;;;8.03;3.77;;;;;;;;;;6216324;23;20222;-73
2022/01/22 05:48:40;;;;;;;7.83;3.90;;;;;;;;;;6216314;23;20246;-73
2022/01/22 05:51:08;;;;;;;9.60;3.50;;;;;;;;;;6215194;23;20180;-73
2022/01/22 05:54:11;;;;;;;6.40;3.60;;;;;;;;;;6214945;23;20213;-73
2022/01/22 06:01:57;;;;;;;8.13;3.60;;;;;;;;;;6224725;23;20592;-73
2022/01/22 06:04:24;;;;;;;6.10;2.90;;;;;;;;;;6214691;23;20180;-73
2022/01/22 06:06:59;;;;;;;13.37;4.23;;;;;;;;;;6224633;23;20249;-73
2022/01/22 06:09:27;;;;;;;3.70;2.43;;;;;;;;;;6214770;23;20181;-73
2022/01/22 06:12:43;;;;;;;7.87;3.30;;;;;;;;;;6216205;23;20254;-73
2022/01/22 06:14:53;;;;;;;8.53;3.77;;;;;;;;;;6208409;23;20180;-73
2022/01/22 06:17:20;;;;;;;11.30;3.67;;;;;;;;;;6214682;23;20254;-73
2022/01/22 06:20:05;;;;;;;11.33;4.00;;;;;;;;;;6214242;23;20176;-73
2022/01/22 06:22:33;;;;;;;9.33;3.10;;;;;;;;;;6214667;23;20255;-73
2022/01/22 06:25:00;;;;;;;6.00;3.17;;;;;;;;;;6165266;23;20238;-73
2022/01/22 06:27:28;;;;;;;12.63;3.90;;;;;;;;;;6211756;23;20204;-70
2022/01/22 06:29:56;;;;;;;9.00;3.40;;;;;;;;;;6215710;23;20210;-73
2022/01/22 06:32:23;;;;;;;6.23;3.50;;;;;;;;;;6189177;23;20184;-70
2022/01/22 06:34:51;;;;;;;13.20;4.30;;;;;;;;;;6189513;23;20184;-73
2022/01/22 06:37:18;;;;;;;8.73;3.87;;;;;;;;;;6164283;23;20619;-70
2022/01/22 06:42:59;;;;;;;6.63;3.90;;;;;;;;;;6198607;23;20254;-74
2022/01/22 06:45:53;;;;;;;8.67;4.67;;;;;;;;;;6208547;23;20188;-73
2022/01/22 06:48:21;;;;;;;12.33;3.57;;;;;;;;;;6187809;23;20555;-77
2022/01/22 06:51:03;;;;;;;11.10;3.80;;;;;;;;;;6213628;23;20198;-75
2022/01/22 06:53:35;;;;;;;8.97;4.07;;;;;;;;;;6188047;23;20180;-74
2022/01/22 06:56:05;;;;;;;11.50;4.60;;;;;;;;;;6186973;23;20168;-73
2022/01/22 06:58:48;;;;;;;12.67;3.53;;;;;;;;;;6188345;23;20171;-68
2022/01/22 07:01:16;;;;;;;7.63;3.80;;;;;;;;;;6215486;23;20202;-73
2022/01/22 07:03:57;;;;;;;8.13;3.27;;;;;;;;;;6216001;23;20218;-73
2022/01/22 07:06:33;;;;;;;7.57;3.57;;;;;;;;;;6199322;23;20221;-76
2022/01/22 07:09:01;;;;;;;11.03;4.73;;;;;;;;;;6189621;23;20226;-70
2022/01/22 07:11:30;;;;;;;10.13;3.43;;;;;;;;;;6188967;23;20186;-71
2022/01/22 07:13:57;;;;;;;10.43;4.57;;;;;;;;;;6189181;23;20184;-74
2022/01/22 07:16:25;;;;;;;6.10;3.70;;;;;;;;;;6215759;23;20260;-75
2022/01/22 07:19:05;;;;;;;9.90;5.07;;;;;;;;;;6189099;23;20168;-75
2022/01/22 07:21:35;;;;;;;15.43;3.57;;;;;;;;;;6189537;23;20254;-76
2022/01/22 07:26:32;;;;;;;9.07;4.40;;;;;;;;;;6188438;23;20204;-76
2022/01/22 07:29:09;;;;;;;9.73;3.67;;;;;;;;;;6165412;23;20206;-74
2022/01/22 07:31:37;;;;;;;6.93;2.83;;;;;;;;;;6190313;23;20184;-74
2022/01/22 07:34:05;;;;;;;6.43;3.33;;;;;;;;;;6214366;23;20199;-77
2022/01/22 07:36:33;;;;;;;21.20;5.20;;;;;;;;;;6214589;23;20184;-75
2022/01/22 07:39:02;;;;;;;11.60;5.33;;;;;;;;;;6165995;23;20472;-73
2022/01/22 07:41:31;;;;;;;8.33;3.90;;;;;;;;;;6190427;23;20168;-74
2022/01/22 07:44:19;;;;;;;12.47;3.70;;;;;;;;;;6164552;23;20180;-73
2022/01/22 07:46:49;;;;;;;11.33;4.33;;;;;;;;;;6213414;23;20552;-73
2022/01/22 07:49:26;;;;;;;4.47;2.73;;;;;;;;;;6227478;23;20175;-74
2022/01/22 07:51:59;;;;;;;8.57;3.80;;;;;;;;;;6226154;23;20168;-74
2022/01/22 07:54:26;;;;;;;10.07;3.57;;;;;;;;;;6217575;23;20184;-73
2022/01/22 07:56:56;;;;;;;10.53;3.70;;;;;;;;;;6225748;23;20164;-74
2022/01/22 07:59:23;;;;;;;7.50;3.70;;;;;;;;;;6216164;23;20234;-74
2022/01/22 08:01:52;;;;;;;4.87;3.43;;;;;;;;;;6215946;23;20184;-73
2022/01/22 08:04:24;;;;;;;9.17;4.30;;;;;;;;;;6217118;23;20180;-74
2022/01/22 08:07:05;;;;;;;5.17;3.10;;;;;;;;;;6227324;23;20549;-73
2022/01/22 08:09:35;;;;;;;6.27;3.57;;;;;;;;;;6225246;23;20180;-74
2022/01/22 08:12:29;;;;;;;7.33;3.77;;;;;;;;;;6215584;23;20184;-73
2022/01/22 08:15:10;;;;;;;4.80;2.53;;;;;;;;;;6225707;23;20168;-74
2022/01/22 08:17:38;;;;;;;4.30;2.23;;;;;;;;;;6225747;23;20170;-75
2022/01/22 08:20:08;;;;;;;6.67;2.97;;;;;;;;;;6215568;23;20180;-74
2022/01/22 08:22:55;;;;;;;5.47;3.17;;;;;;;;;;6227097;23;20172;-74
2022/01/22 08:25:39;;;;;;;5.13;2.53;;;;;;;;;;6226364;23;20172;-73
2022/01/22 08:31:05;;;;;;;4.50;2.47;;;;;;;;;;6215711;23;20215;-73
2022/01/22 08:36:02;;;;;;;3.07;2.13;;;;;;;;;;6215612;23;20176;-74
2022/01/22 08:38:31;;;;;;;7.13;3.60;;;;;;;;;;6217294;23;20179;-75
2022/01/22 08:40:59;;;;;;;6.23;3.27;;;;;;;;;;6214685;23;20183;-73
2022/01/22 08:43:29;;;;;;;2.53;2.13;;;;;;;;;;6215518;23;20651;-74
2022/01/22 08:45:57;;;;;;;5.73;2.63;;;;;;;;;;6215804;23;20482;-73
2022/01/22 08:48:24;;;;;;;3.80;2.33;;;;;;;;;;6215151;23;20216;-71
2022/01/22 08:50:56;;;;;;;3.20;2.00;;;;;;;;;;6225385;23;20553;-73
2022/01/22 08:53:43;;;;;;;4.73;2.30;;;;;;;;;;6204768;23;20176;-73
2022/01/22 08:56:10;;;;;;;1.60;1.50;;;;;;;;;;6189985;23;20176;-73
2022/01/22 08:58:41;;;;;;;4.77;1.90;;;;;;;;;;6215529;23;20203;-73
2022/01/22 09:01:16;;;;;;;4.07;2.50;;;;;;;;;;6215599;23;20179;-74
2022/01/22 09:03:49;;;;;;;5.13;2.40;;;;;;;;;;6177665;23;20164;-74
2022/01/22 09:06:31;;;;;;;3.23;2.33;;;;;;;;;;6203390;23;20164;-72
2022/01/22 09:09:12;;;;;;;4.33;2.50;;;;;;;;;;6224672;23;20164;-73
2022/01/22 09:11:54;;;;;;;2.63;2.13;;;;;;;;;;6225773;23;20172;-72
2022/01/22 09:14:38;;;;;;;3.47;2.30;;;;;;;;;;6226171;23;20168;-73
2022/01/22 09:17:06;;;;;;;8.73;2.37;;;;;;;;;;6215039;23;20227;-73
2022/01/22 09:19:36;;;;;;;2.00;1.90;;;;;;;;;;6215439;23;20180;-73
2022/01/22 09:22:09;;;;;;;3.77;2.37;;;;;;;;;;6225068;23;20167;-74
2022/01/22 09:24:37;;;;;;;4.60;3.30;;;;;;;;;;6189879;23;20508;-74
2022/01/22 09:27:06;;;;;;;3.47;2.60;;;;;;;;;;6216463;23;20196;-74
2022/01/22 09:29:36;;;;;;;3.93;2.57;;;;;;;;;;6166265;23;20679;-73
2022/01/22 09:32:04;;;;;;;3.63;2.43;;;;;;;;;;6216548;23;20184;-74
2022/01/22 09:34:45;;;;;;;2.13;1.83;;;;;;;;;;6226470;23;20176;-75
2022/01/22 09:37:20;;;;;;;5.13;2.90;;;;;;;;;;6215083;23;20172;-72
2022/01/22 09:40:04;;;;;;;3.00;1.97;;;;;;;;;;6214726;23;20168;-73
2022/01/22 09:42:44;;;;;;;3.37;2.37;;;;;;;;;;6216411;23;20674;-75
2022/01/22 09:45:35;;;;;;;2.50;1.70;;;;;;;;;;6207954;23;20180;-70
2022/01/22 09:48:16;;;;;;;4.43;2.13;;;;;;;;;;6214873;23;20196;-71
2022/01/22 09:51:00;;;;;;;3.83;2.40;;;;;;;;;;6215247;23;20168;-71
2022/01/22 09:53:43;;;;;;;2.67;1.90;;;;;;;;;;6215819;23;20168;-71
2022/01/22 09:56:27;;;;;;;2.20;1.93;;;;;;;;;;6226391;23;20172;-72
2022/01/22 09:59:10;;;;;;;2.80;1.90;;;;;;;;;;6216582;23;20172;-71
2022/01/22 10:01:51;;;;;;;3.13;1.60;;;;;;;;;;6216401;23;20168;-70
2022/01/22 10:04:34;;;;;;;2.03;1.83;;;;;;;;;;6215090;23;20180;-70
2022/01/22 10:07:31;;;;;;;4.53;2.23;;;;;;;;;;6160842;23;20209;-71
2022/01/22 10:10:12;;;;;;;2.20;1.63;;;;;;;;;;6215752;23;20250;-71
2022/01/22 10:12:51;;;;;;;3.43;2.00;;;;;;;;;;6216350;23;20238;-71
2022/01/22 10:15:39;;;;;;;2.60;1.77;;;;;;;;;;6214303;23;20577;-71
2022/01/22 10:18:19;;;;;;;1.37;1.20;;;;;;;;;;6168991;23;20187;-69
2022/01/22 10:20:47;;;;;;;4.77;2.00;;;;;;;;;;6226199;23;20199;-72
2022/01/22 10:23:25;;;;;;;3.67;2.33;;;;;;;;;;6215334;23;20267;-70
2022/01/22 10:26:02;;;;;;;3.63;1.70;;;;;;;;;;6216206;23;20176;-72
2022/01/22 10:28:46;;;;;;;2.57;1.90;;;;;;;;;;6225966;23;20529;-72
2022/01/22 10:31:21;;;;;;;5.10;1.87;;;;;;;;;;6214437;23;20168;-72
2022/01/22 10:34:14;;;;;;;4.73;2.53;;;;;;;;;;6192412;23;20188;-72
2022/01/22 10:37:08;;;;;;;2.50;1.83;;;;;;;;;;6192267;23;20307;-72
2022/01/22 10:39:45;;;;;;;4.97;2.30;;;;;;;;;;6211774;23;20171;-70
2022/01/22 10:42:21;;;;;;;4.53;2.57;;;;;;;;;;6215832;23;20210;-71
2022/01/22 10:44:50;;;;;;;2.83;1.70;;;;;;;;;;6216086;23;20218;-70
2022/01/22 10:47:19;;;;;;;2.97;1.50;;;;;;;;;;6216021;23;20204;-71
2022/01/22 10:49:47;;;;;;;2.97;2.07;;;;;;;;;;6215599;23;20616;-70
2022/01/22 10:52:14;;;;;;;3.17;1.87;;;;;;;;;;6214539;23;20218;-71
2022/01/22 10:54:41;;;;;;;2.43;2.00;;;;;;;;;;6212864;23;20650;-69
2022/01/22 10:57:12;;;;;;;2.63;2.40;;;;;;;;;;6214584;23;20634;-71
2022/01/22 10:59:50;;;;;;;2.60;1.80;;;;;;;;;;6216189;23;20168;-73
2022/01/22 11:02:34;;;;;;;3.70;1.50;;;;;;;;;;6225785;23;20218;-70
2022/01/22 11:05:02;;;;;;;2.43;2.00;;;;;;;;;;6215853;23;20226;-73
2022/01/22 11:07:29;;;;;;;8.47;2.73;;;;;;;;;;6215489;23;20283;-72
2022/01/22 11:10:05;;;;;;;2.17;1.70;;;;;;;;;;6224703;23;20176;-70
2022/01/22 11:12:32;;;;;;;1.67;1.40;;;;;;;;;;6215404;23;20644;-73
2022/01/22 11:14:59;;;;;;;2.97;2.00;;;;;;;;;;6217428;23;20187;-70
2022/01/22 11:17:31;;;;;;;2.77;2.00;;;;;;;;;;6217859;23;20178;-70
2022/01/22 11:20:00;;;;;;;3.80;2.60;;;;;;;;;;6227910;23;20164;-68
2022/01/22 11:22:28;;;;;;;2.10;1.73;;;;;;;;;;6217248;23;20179;-70
2022/01/22 11:24:57;;;;;;;6.00;2.87;;;;;;;;;;6215490;23;20199;-70
2022/01/22 11:27:24;;;;;;;2.27;2.07;;;;;;;;;;6216296;23;20208;-71
2022/01/22 11:30:02;;;;;;;3.60;2.33;;;;;;;;;;6216061;23;20238;-70
2022/01/22 11:32:45;;;;;;;5.13;2.60;;;;;;;;;;6217602;23;20673;-70
2022/01/22 11:35:14;;;;;;;4.73;2.60;;;;;;;;;;6216638;23;20168;-70
2022/01/22 11:38:00;;;;;;;3.77;2.63;;;;;;;;;;6215490;23;20184;-70
2022/01/22 11:40:31;;;;;;;8.93;2.03;;;;;;;;;;6215944;23;20199;-72
2022/01/22 11:43:05;;;;;;;9.17;2.17;;;;;;;;;;6227591;23;20174;-72
2022/01/22 11:45:39;;;;;;;6.27;3.10;;;;;;;;;;6227654;23;20621;-71
2022/01/22 11:48:15;;;;;;;4.80;3.17;;;;;;;;;;6217522;23;20199;-73
2022/01/22 11:50:45;;;;;;;7.50;2.67;;;;;;;;;;6227891;23;20168;-69
2022/01/22 11:53:26;;;;;;;3.33;2.60;;;;;;;;;;6215397;23;20454;-69
2022/01/22 11:56:13;;;;;;;3.40;2.57;;;;;;;;;;6217760;23;20176;-71
2022/01/22 11:58:58;;;;;;;6.37;2.73;;;;;;;;;;6217495;23;20168;-69
2022/01/22 12:01:46;;;;;;;3.53;2.30;;;;;;;;;;6217732;23;20168;-70
2022/01/22 12:04:17;;;;;;;6.07;3.30;;;;;;;;;;6217832;23;20172;-71
2022/01/22 12:07:01;;;;;;;4.60;2.70;;;;;;;;;;6226170;23;20175;-70
2022/01/22 12:15:41;;;;;;;5.43;2.50;;;;;;;;;;6193841;23;20180;-72
2022/01/22 12:18:15;;;;;;;4.43;2.97;;;;;;;;;;6215841;23;20516;-68
2022/01/22 12:23:32;;;;;;;5.23;3.07;;;;;;;;;;6216204;23;20179;-72
2022/01/22 12:26:01;;;;;;;4.63;2.90;;;;;;;;;;6226989;23;20199;-71
2022/01/22 12:28:40;;;;;;;5.57;3.40;;;;;;;;;;6217393;23;20263;-74
2022/01/22 12:31:16;;;;;;;6.40;3.13;;;;;;;;;;6217506;23;20172;-74
2022/01/22 12:33:52;;;;;;;4.77;2.97;;;;;;;;;;6217378;23;20638;-73
2022/01/22 12:36:25;;;;;;;5.67;2.93;;;;;;;;;;6227278;23;20166;-72
2022/01/22 12:39:11;;;;;;;8.67;4.37;;;;;;;;;;6226696;23;20165;-71
2022/01/22 12:47:13;;;;;;;5.40;2.87;;;;;;;;;;6227153;23;20315;-69
2022/01/22 12:49:43;;;;;;;3.60;2.87;;;;;;;;;;6217513;23;20254;-71
2022/01/22 12:52:12;;;;;;;4.43;3.03;;;;;;;;;;6216113;23;20188;-71
2022/01/22 12:54:48;;;;;;;4.63;2.77;;;;;;;;;;6215720;23;20184;-72
2022/01/22 12:57:20;;;;;;;6.53;3.30;;;;;;;;;;6217103;23;20168;-68
2022/01/22 12:59:48;;;;;;;6.53;3.57;;;;;;;;;;6217216;23;20207;-68
2022/01/22 13:02:24;;;;;;;5.10;3.07;;;;;;;;;;6215737;23;20215;-71
2022/01/22 13:04:58;;;;;;;7.70;3.80;;;;;;;;;;6226855;23;20168;-73
2022/01/22 13:07:52;;;;;;;9.43;4.07;;;;;;;;;;6192992;23;20174;-73
2022/01/22 13:10:48;;;;;;;9.00;3.70;;;;;;;;;;6203180;23;20183;-70
2022/01/22 13:13:18;;;;;;;8.63;4.30;;;;;;;;;;6216818;23;20210;-74
2022/01/22 13:15:47;;;;;;;5.93;3.40;;;;;;;;;;6217109;23;20169;-68
2022/01/22 13:18:14;;;;;;;8.57;4.20;;;;;;;;;;6216863;23;20211;-66
2022/01/22 13:20:42;;;;;;;10.80;4.67;;;;;;;;;;6217051;23;20203;-70
2022/01/22 13:23:17;;;;;;;5.80;3.13;;;;;;;;;;6216020;23;20650;-69
2022/01/22 13:25:45;;;;;;;8.07;2.97;;;;;;;;;;6226508;23;20172;-71
2022/01/22 13:28:15;;;;;;;6.77;3.40;;;;;;;;;;6216643;23;20269;-70
2022/01/22 13:30:50;;;;;;;4.40;3.23;;;;;;;;;;6216467;23;20712;-72
2022/01/22 13:33:20;;;;;;;4.93;3.10;;;;;;;;;;6226549;23;20170;-71
2022/01/22 13:49:39;;;;;;;3.60;2.90;;;;;;;;;;6216463;23;20246;-68
2022/01/22 13:52:11;;;;;;;6.53;3.30;;;;;;;;;;6189664;23;20169;-70
2022/01/22 13:54:49;;;;;;;4.03;2.93;;;;;;;;;;6216540;23;20175;-67
2022/01/22 13:57:19;;;;;;;6.77;3.33;;;;;;;;;;6216609;23;20239;-71
2022/01/22 13:59:48;;;;;;;6.30;3.40;;;;;;;;;;6190339;23;20527;-70
2022/01/22 14:04:52;;;;;;;4.03;3.00;;;;;;;;;;6200823;23;20588;-72
2022/01/22 14:07:31;;;;;;;7.43;4.60;;;;;;;;;;6215851;23;20172;-73
2022/01/22 14:10:00;;;;;;;11.07;4.43;;;;;;;;;;6166547;23;20619;-72
2022/01/22 14:12:37;;;;;;;6.00;3.87;;;;;;;;;;6190049;23;20178;-73
2022/01/22 14:15:11;;;;;;;4.83;3.53;;;;;;;;;;6191129;23;20173;-73
2022/01/22 14:17:58;;;;;;;9.53;4.80;;;;;;;;;;6174974;23;20168;-70
2022/01/22 14:20:27;;;;;;;8.37;3.70;;;;;;;;;;6216300;23;20173;-73
2022/01/22 14:23:05;;;;;;;6.97;3.47;;;;;;;;;;6189815;23;20250;-74
2022/01/22 14:25:35;;;;;;;8.50;3.67;;;;;;;;;;6216405;23;20251;-75
2022/01/22 14:28:12;;;;;;;5.90;3.67;;;;;;;;;;6215945;23;20628;-74
2022/01/22 14:30:45;;;;;;;3.83;2.63;;;;;;;;;;6217502;23;20207;-75
2022/01/22 14:33:16;;;;;;;5.93;3.20;;;;;;;;;;6140957;23;20172;-74
2022/01/22 14:35:59;;;;;;;8.30;4.20;;;;;;;;;;6141051;23;20171;-75
2022/01/22 14:38:42;;;;;;;3.67;3.03;;;;;;;;;;6175267;23;20514;-74
2022/01/22 14:46:53;;;;;;;3.70;2.43;;;;;;;;;;6225998;23;20168;-71
2022/01/22 14:49:22;;;;;;;5.67;3.43;;;;;;;;;;6214163;23;20261;-74
2022/01/22 14:51:50;;;;;;;4.77;3.00;;;;;;;;;;6140291;23;20176;-74
2022/01/22 14:54:20;;;;;;;6.57;3.50;;;;;;;;;;6140754;23;20182;-80
2022/01/22 14:56:48;;;;;;;5.10;2.57;;;;;;;;;;6140973;23;20278;-74
2022/01/22 14:59:16;;;;;;;6.53;2.83;;;;;;;;;;6165226;23;20176;-74
2022/01/22 15:01:43;;;;;;;4.17;2.03;;;;;;;;;;6164983;23;20180;-73
2022/01/22 15:04:11;;;;;;;5.63;2.90;;;;;;;;;;6188862;23;20184;-71
2022/01/22 15:06:54;;;;;;;3.63;2.60;;;;;;;;;;6215318;23;20167;-75
2022/01/22 15:09:23;;;;;;;3.70;2.83;;;;;;;;;;6216014;23;20200;-75
2022/01/22 15:11:50;;;;;;;3.97;2.30;;;;;;;;;;6189499;23;20526;-74
2022/01/22 15:14:18;;;;;;;2.80;2.07;;;;;;;;;;6215807;23;20282;-75
2022/01/22 15:17:13;;;;;;;5.40;3.43;;;;;;;;;;6225666;23;20219;-74
2022/01/22 15:19:42;;;;;;;4.00;2.60;;;;;;;;;;6224720;23;20230;-73
2022/01/22 15:22:11;;;;;;;5.60;3.33;;;;;;;;;;6215186;23;20211;-75
2022/01/22 15:24:40;;;;;;;4.07;2.50;;;;;;;;;;6215729;23;20204;-76
2022/01/22 15:27:10;;;;;;;2.77;1.77;;;;;;;;;;6215649;23;20255;-76
2022/01/22 15:29:53;;;;;;;7.30;3.20;;;;;;;;;;6215268;23;20243;-75
2022/01/22 15:35:04;;;;;;;4.80;2.90;;;;;;;;;;6213820;23;20172;-75
2022/01/22 15:37:33;;;;;;;4.33;2.93;;;;;;;;;;6215608;23;20180;-75
2022/01/22 15:40:02;;;;;;;5.33;3.23;;;;;;;;;;6215526;23;20206;-76
2022/01/22 15:42:29;;;;;;;8.10;3.77;;;;;;;;;;6215385;23;20180;-75
2022/01/22 15:44:57;;;;;;;8.27;3.87;;;;;;;;;;6215382;23;20577;-74
2022/01/22 15:47:24;;;;;;;9.53;5.13;;;;;;;;;;6189205;23;20187;-74
2022/01/22 15:49:56;;;;;;;10.23;3.80;;;;;;;;;;6213257;23;20200;-72
2022/01/22 15:52:25;;;;;;;7.27;4.40;;;;;;;;;;6215574;23;20559;-71
2022/01/22 15:54:52;;;;;;;9.03;4.97;;;;;;;;;;6215376;23;20191;-72
2022/01/22 15:57:20;;;;;;;10.63;4.13;;;;;;;;;;6215238;23;20187;-75
2022/01/22 15:59:48;;;;;;;5.20;3.13;;;;;;;;;;6189741;23;20177;-76
2022/01/22 16:02:16;;;;;;;10.83;5.20;;;;;;;;;;6217209;23;20184;-74
2022/01/22 16:04:50;;;;;;;8.33;4.27;;;;;;;;;;6215442;23;20246;-73
2022/01/22 16:07:24;;;;;;;8.53;3.77;;;;;;;;;;6217365;23;20179;-74
2022/01/22 16:10:12;;;;;;;10.00;5.93;;;;;;;;;;6217120;23;20207;-72
2022/01/22 16:12:40;;;;;;;10.03;4.93;;;;;;;;;;6217353;23;20206;-75
2022/01/22 16:15:08;;;;;;;10.13;5.87;;;;;;;;;;6217183;23;20180;-73
2022/01/22 16:17:35;;;;;;;12.17;6.47;;;;;;;;;;6217070;23;20180;-74
2022/01/22 16:20:03;;;;;;;10.87;5.67;;;;;;;;;;6189237;23;20180;-75
2022/01/22 16:22:31;;;;;;;12.27;5.10;;;;;;;;;;6217902;23;20253;-76
2022/01/22 16:24:59;;;;;;;11.27;5.57;;;;;;;;;;6216800;23;20180;-74
2022/01/22 16:27:28;;;;;;;12.20;6.23;;;;;;;;;;6217129;23;20210;-74
2022/01/22 16:29:57;;;;;;;9.17;4.47;;;;;;;;;;6216685;23;20215;-73
2022/01/22 16:32:26;;;;;;;7.27;4.20;;;;;;;;;;6217049;23;20191;-74
2022/01/22 16:34:55;;;;;;;15.23;6.83;;;;;;;;;;6214988;23;20180;-72
2022/01/22 16:37:22;;;;;;;11.33;5.40;;;;;;;;;;6190222;23;20176;-71
2022/01/22 16:39:51;;;;;;;7.47;3.93;;;;;;;;;;6216528;23;20180;-71
2022/01/22 16:42:18;;;;;;;6.97;4.13;;;;;;;;;;6216613;23;20186;-72
2022/01/22 16:55:26;;;;;;;8.77;4.50;;;;;;;;;;6192669;23;20164;-71
2022/01/22 16:57:58;;;;;;;13.73;5.90;;;;;;;;;;6216323;23;20175;-74
2022/01/22 17:00:30;;;;;;;14.73;4.97;;;;;;;;;;6226495;23;20173;-72
2022/01/22 17:02:57;;;;;;;6.77;4.50;;;;;;;;;;6216666;23;20204;-73
2022/01/22 17:05:25;;;;;;;13.30;5.37;;;;;;;;;;6140778;23;20182;-74
2022/01/22 17:10:36;;;;;;;10.43;5.13;;;;;;;;;;6216445;23;20204;-73
2022/01/22 17:15:45;;;;;;;6.27;3.80;;;;;;;;;;6193129;23;20223;-73
2022/01/22 17:18:13;;;;;;;10.13;4.90;;;;;;;;;;6166339;23;20180;-72
2022/01/22 17:20:40;;;;;;;11.43;3.33;;;;;;;;;;6214074;23;20183;-75
2022/01/22 17:23:07;;;;;;;7.33;4.10;;;;;;;;;;6164300;23;20250;-72
2022/01/22 17:25:35;;;;;;;8.13;4.30;;;;;;;;;;6216400;23;20180;-75
2022/01/22 17:28:04;;;;;;;8.60;5.20;;;;;;;;;;6216364;23;20184;-74
2022/01/22 17:30:31;;;;;;;8.20;4.60;;;;;;;;;;6216049;23;20211;-68
2022/01/22 17:32:59;;;;;;;9.67;5.20;;;;;;;;;;6216475;23;20184;-73
2022/01/22 17:35:34;;;;;;;8.57;5.10;;;;;;;;;;6215714;23;20169;-74
2022/01/22 17:38:08;;;;;;;8.13;4.67;;;;;;;;;;6175922;23;20165;-72
2022/01/22 17:40:43;;;;;;;8.20;5.10;;;;;;;;;;6216120;23;20521;-73
2022/01/22 17:43:11;;;;;;;11.03;5.07;;;;;;;;;;6190104;23;20171;-71
2022/01/22 17:45:41;;;;;;;9.13;5.43;;;;;;;;;;6216057;23;20558;-74
2022/01/22 17:48:08;;;;;;;8.50;4.63;;;;;;;;;;6216115;23;20180;-77
2022/01/22 17:50:37;;;;;;;8.67;5.20;;;;;;;;;;6215979;23;20216;-73